Time;durP1;ratioP1;P1;durP2;ratioP2;P2;SDS_P1;SDS_P2;PMS_P1;PMS_P2;Temp;Humidity;BMP_temperature;BMP_pressure;BME280_temperature;BME280_humidity;BME280_pressure;Samples;Min_cycle;Max_cycle;Signal;HPM_P1;HPM_P2
2022/06/14 00:01:51;;;;;;;;;2.75;2.75;;;;;23.71;36.22;101616.69;5070478;27;45432;-53
2022/06/14 00:04:17;;;;;;;;;5.75;5.00;;;;;23.70;36.62;101610.47;5062264;28;45716;-54
2022/06/14 00:06:42;;;;;;;;;3.75;3.75;;;;;23.70;36.31;101625.66;5060159;28;45498;-51
2022/06/14 00:09:07;;;;;;;;;4.75;4.00;;;;;23.67;36.31;101616.03;5063861;28;45392;-53
2022/06/14 00:11:36;;;;;;;;;5.25;5.25;;;;;23.68;36.51;101620.41;5067820;28;46176;-54
2022/06/14 00:14:03;;;;;;;;;4.00;4.00;;;;;23.68;36.32;101611.53;5070957;27;45299;-52
2022/06/14 00:16:30;;;;;;;;;5.75;5.00;;;;;23.67;36.46;101618.72;5072600;27;45459;-53
2022/06/14 00:18:56;;;;;;;;;6.00;5.00;;;;;23.65;36.53;101614.41;5069579;27;45769;-53
2022/06/14 00:21:21;;;;;;;;;5.50;4.00;;;;;23.64;36.46;101612.72;5091722;27;46660;-52
2022/06/14 00:23:47;;;;;;;;;7.25;4.00;;;;;23.65;36.05;101623.28;5067014;28;45418;-53
2022/06/14 00:26:12;;;;;;;;;8.50;5.25;;;;;23.65;36.22;101609.06;5077492;27;45328;-53
2022/06/14 00:28:40;;;;;;;;;6.00;4.75;;;;;23.64;36.44;101618.06;5069362;27;67434;-53
2022/06/14 00:31:11;;;;;;;;;5.25;5.25;;;;;23.62;36.10;101606.59;5068464;28;45791;-51
2022/06/14 00:33:37;;;;;;;;;6.75;5.50;;;;;23.60;36.55;101614.75;5064128;27;45894;-51
2022/06/14 00:36:08;;;;;;;;;8.00;7.00;;;;;23.61;36.16;101616.44;5081650;27;68128;-50
2022/06/14 00:38:35;;;;;;;;;7.25;7.25;;;;;23.61;36.25;101612.91;5075412;27;45511;-52
2022/06/14 00:41:01;;;;;;;;;7.00;5.00;;;;;23.60;36.23;101625.44;5064579;27;45514;-52
2022/06/14 00:43:29;;;;;;;;;8.25;6.75;;;;;23.60;36.47;101613.88;5069682;28;45442;-51
2022/06/14 00:46:15;;;;;;;;;8.50;6.00;;;;;23.59;36.70;101622.88;5065398;27;45338;-51
2022/06/14 00:48:43;;;;;;;;;7.00;5.00;;;;;23.58;36.01;101626.47;5078273;27;45472;-51
2022/06/14 00:51:14;;;;;;;;;9.25;6.00;;;;;23.58;36.37;101623.81;5069515;27;45444;-54
2022/06/14 00:53:56;;;;;;;;;8.25;8.00;;;;;23.56;36.13;101623.06;5069347;27;45596;-50
2022/06/14 00:56:41;;;;;;;;;7.75;7.00;;;;;23.55;36.57;101610.66;5072182;28;45360;-51
2022/06/14 00:59:15;;;;;;;;;9.00;6.00;;;;;23.54;36.09;101617.81;5062411;28;45327;-52
2022/06/14 01:01:42;;;;;;;;;5.50;4.25;;;;;23.49;36.43;101611.94;5070371;27;45504;-51
2022/06/14 01:04:17;;;;;;;;;3.00;2.75;;;;;23.52;36.08;101616.22;5085755;27;45413;-54
2022/06/14 01:06:57;;;;;;;;;4.00;3.25;;;;;23.51;36.07;101612.69;5069436;27;46640;-53
2022/06/14 01:09:26;;;;;;;;;5.50;4.00;;;;;23.50;36.45;101608.31;5065046;28;45295;-52
2022/06/14 01:12:04;;;;;;;;;4.00;3.75;;;;;23.49;36.07;101620.78;5073829;27;45688;-53
2022/06/14 01:14:56;;;;;;;;;5.50;4.25;;;;;23.48;36.17;101607.56;5074524;27;45326;-53
2022/06/14 01:17:22;;;;;;;;;5.25;4.00;;;;;23.46;36.29;101607.66;5066288;28;45421;-54
2022/06/14 01:19:47;;;;;;;;;1.25;1.00;;;;;23.43;36.32;101599.00;5066802;27;45407;-54
2022/06/14 01:22:13;;;;;;;;;4.50;3.50;;;;;23.44;36.03;101604.25;5062354;28;69324;-54
2022/06/14 01:24:40;;;;;;;;;3.25;3.25;;;;;23.44;36.46;101604.25;5070480;28;45242;-53
2022/06/14 01:27:10;;;;;;;;;3.25;3.25;;;;;23.44;35.96;101598.03;5061877;28;45228;-52
2022/06/14 01:29:37;;;;;;;;;4.00;3.50;;;;;23.43;36.23;101593.66;5078748;27;45487;-53
2022/06/14 01:32:05;;;;;;;;;5.00;4.00;;;;;23.42;36.17;101602.63;5073318;28;45478;-53
2022/06/14 01:34:32;;;;;;;;;5.00;3.50;;;;;23.40;36.25;101591.19;5081111;27;45642;-52
2022/06/14 01:36:58;;;;;;;;;5.00;3.50;;;;;23.39;36.26;101587.66;5065298;28;65057;-53
2022/06/14 01:39:24;;;;;;;;;3.00;3.00;;;;;23.36;36.38;101577.19;5072958;28;45417;-52
2022/06/14 01:42:18;;;;;;;;;5.00;4.00;;;;;23.38;36.12;101595.78;5080845;27;46433;-53
2022/06/14 01:44:58;;;;;;;;;4.00;4.00;;;;;23.31;36.24;101579.31;5072143;28;45406;-53
2022/06/14 01:47:39;;;;;;;;;5.75;4.00;;;;;23.34;36.13;101584.44;5068784;27;45517;-52
2022/06/14 01:53:28;;;;;;;;;4.00;4.00;;;;;23.32;36.39;101578.34;5068444;28;45275;-53
2022/06/14 01:56:01;;;;;;;;;3.25;3.25;;;;;23.30;36.02;101574.91;5059491;28;45921;-53
2022/06/14 01:58:34;;;;;;;;;5.00;4.00;;;;;23.29;36.25;101573.22;5062442;28;45266;-50
2022/06/14 02:01:21;;;;;;;;;5.25;4.00;;;;;23.27;36.12;101561.78;5063883;28;45368;-54
2022/06/14 02:06:59;;;;;;;;;4.25;4.00;;;;;23.17;35.92;101544.66;5080557;27;45486;-53
2022/06/14 02:09:32;;;;;;;;;4.50;3.00;;;;;23.24;36.06;101560.16;5058831;28;45407;-51
2022/06/14 02:12:00;;;;;;;;;4.75;3.00;;;;;23.20;36.11;101556.00;5068510;28;45284;-53
2022/06/14 02:14:32;;;;;;;;;3.50;3.50;;;;;23.22;36.25;101559.41;5053767;28;45328;-52
2022/06/14 02:17:01;;;;;;;;;2.00;2.00;;;;;23.22;36.34;101556.75;5077185;27;45427;-53
2022/06/14 02:19:32;;;;;;;;;2.50;2.50;;;;;23.22;36.08;101556.75;5074605;27;45447;-52
2022/06/14 02:22:10;;;;;;;;;3.00;2.00;;;;;23.20;35.98;101553.31;5075667;27;45438;-50
2022/06/14 02:24:47;;;;;;;;;2.00;2.00;;;;;23.18;36.47;101543.69;5066741;28;46343;-52
2022/06/14 02:27:15;;;;;;;;;4.00;3.00;;;;;23.20;36.32;101552.47;5063306;28;46072;-50
2022/06/14 02:29:46;;;;;;;;;3.00;3.00;;;;;23.18;36.31;101557.91;5065314;28;45522;-52
2022/06/14 02:32:33;;;;;;;;;3.75;2.50;;;;;23.18;36.00;101554.38;5058092;28;45736;-52
2022/06/14 02:35:12;;;;;;;;;6.50;3.00;;;;;23.16;35.92;101557.16;5073168;28;45291;-53
2022/06/14 02:37:46;;;;;;;;;2.50;2.50;;;;;23.12;36.20;101553.84;5070722;28;45605;-51
2022/06/14 02:40:21;;;;;;;;;4.75;2.75;;;;;23.14;36.09;101551.06;5078490;27;45431;-51
2022/06/14 02:42:59;;;;;;;;;2.50;2.50;;;;;23.13;36.46;101550.19;5072095;28;45486;-54
2022/06/14 02:45:29;;;;;;;;;3.50;3.00;;;;;23.13;36.51;101546.69;5075118;28;47130;-53
2022/06/14 02:48:03;;;;;;;;;5.50;3.00;;;;;23.12;36.06;101548.50;5075297;27;45213;-54
2022/06/14 02:50:32;;;;;;;;;3.00;2.00;;;;;23.12;36.29;101542.28;5078021;27;45383;-52
2022/06/14 02:53:16;;;;;;;;;2.00;2.00;;;;;23.11;36.17;101551.28;5076347;28;45341;-53
2022/06/14 02:55:53;;;;;;;;;3.00;1.75;;;;;23.09;36.11;101555.88;5068811;28;46896;-53
2022/06/14 02:58:40;;;;;;;;;2.50;2.00;;;;;23.08;36.50;101548.81;5074239;27;46112;-51
2022/06/14 03:01:45;;;;;;;;;2.00;2.00;;;;;23.07;36.29;101545.28;5064405;28;45513;-53
2022/06/14 03:04:13;;;;;;;;;3.50;2.75;;;;;;;;5070290;28;45347;-53
2022/06/14 03:07:14;;;;;;;;;2.00;2.00;;;;;23.06;36.45;101534.72;5066831;28;45452;-53
2022/06/14 03:09:41;;;;;;;;;2.75;1.75;;;;;23.02;36.19;101531.34;5062864;28;45159;-54
2022/06/14 03:12:18;;;;;;;;;2.00;2.00;;;;;23.03;35.99;101533.03;5063023;28;45382;-51
2022/06/14 03:14:56;;;;;;;;;2.00;2.00;;;;;23.02;36.24;101527.81;5076962;27;45360;-52
2022/06/14 03:17:46;;;;;;;;;2.00;2.00;;;;;23.01;36.53;101532.31;5072548;28;46178;-53
2022/06/14 03:20:38;;;;;;;;;2.00;2.00;;;;;22.99;36.18;101528.03;5073685;28;45205;-53
2022/06/14 03:23:09;;;;;;;;;4.00;2.00;;;;;22.98;36.45;101529.81;5068312;28;45466;-51
2022/06/14 03:25:45;;;;;;;;;3.00;3.00;;;;;22.98;36.63;101526.31;5063643;28;45372;-52
2022/06/14 03:28:39;;;;;;;;;2.50;2.00;;;;;22.94;36.01;101523.84;5073714;28;45526;-52
2022/06/14 03:31:13;;;;;;;;;2.00;2.00;;;;;22.94;36.12;101526.50;5065379;28;45780;-52
2022/06/14 03:33:45;;;;;;;;;2.00;2.00;;;;;22.93;36.07;101526.63;5077139;27;45334;-54
2022/06/14 03:36:13;;;;;;;;;3.50;3.00;;;;;22.88;36.49;101518.06;5060698;28;45275;-52
2022/06/14 03:38:54;;;;;;;;;2.75;2.00;;;;;22.89;36.11;101525.09;5073963;28;46198;-54
2022/06/14 03:41:25;;;;;;;;;4.00;2.75;;;;;22.91;36.35;101531.19;5091931;27;45305;-52
2022/06/14 03:43:52;;;;;;;;;3.25;1.75;;;;;22.88;36.55;101528.75;5066131;28;45545;-53
2022/06/14 03:46:20;;;;;;;;;2.00;2.00;;;;;22.88;36.62;101523.41;5090100;27;45506;-54
2022/06/14 03:48:48;;;;;;;;;3.75;3.00;;;;;22.87;36.70;101529.69;5066391;28;45275;-52
2022/06/14 03:51:29;;;;;;;;;2.00;2.00;;;;;22.86;36.18;101528.84;5065622;28;45778;-54
2022/06/14 03:54:12;;;;;;;;;6.00;3.00;;;;;22.85;36.75;101520.94;5071000;27;45290;-52
2022/06/14 03:56:55;;;;;;;;;3.50;3.00;;;;;22.83;36.26;101523.72;5073124;27;45562;-51
2022/06/14 03:59:34;;;;;;;;;2.75;2.75;;;;;22.83;36.41;101525.53;5079861;27;45409;-50
2022/06/14 04:02:14;;;;;;;;;1.00;1.00;;;;;22.83;36.77;101525.53;5070834;27;45303;-53
2022/06/14 04:04:51;;;;;;;;;1.00;1.00;;;;;22.83;36.66;101523.72;5084073;27;45320;-52
2022/06/14 04:07:47;;;;;;;;;1.00;1.00;;;;;22.85;36.51;101523.63;5077933;28;45569;-52
2022/06/14 04:10:32;;;;;;;;;0.75;0.50;;;;;22.84;36.99;101521.88;5090390;27;45502;-53
2022/06/14 04:13:06;;;;;;;;;2.00;1.00;;;;;22.85;37.08;101518.28;5065613;27;45796;-51
2022/06/14 04:16:05;;;;;;;;;3.00;2.00;;;;;22.85;36.68;101518.28;5075706;28;45331;-51
2022/06/14 04:18:42;;;;;;;;;3.00;1.00;;;;;22.85;37.16;101524.47;5076883;27;45240;-52
2022/06/14 04:21:36;;;;;;;;;0.75;0.75;;;;;22.83;37.03;101518.38;5063330;27;46378;-54
2022/06/14 04:24:20;;;;;;;;;0.00;0.00;;;;;22.86;36.86;101530.63;5069283;27;45469;-53
2022/06/14 04:27:06;;;;;;;;;1.00;0.50;;;;;22.86;37.38;101531.53;5067551;27;45415;-54
2022/06/14 04:30:20;;;;;;;;;2.50;1.00;;;;;22.84;37.04;101529.91;5069849;28;45573;-52
2022/06/14 04:33:06;;;;;;;;;0.00;0.00;;;;;22.86;37.29;101534.19;5014106;28;46231;-54
2022/06/14 04:35:42;;;;;;;;;0.00;0.00;;;;;22.86;37.40;101526.19;5018879;28;45776;-53
2022/06/14 04:38:17;;;;;;;;;2.00;0.75;;;;;22.87;37.70;101521.69;5065027;28;45309;-53
2022/06/14 04:40:52;;;;;;;;;1.00;0.50;;;;;22.88;37.29;101524.25;5071212;28;45438;-53
2022/06/14 04:43:26;;;;;;;;;0.00;0.00;;;;;22.81;37.36;101517.63;5061242;27;46895;-52
2022/06/14 04:46:38;;;;;;;;;0.00;0.00;;;;;22.87;37.59;101514.53;5073986;27;45474;-53
2022/06/14 04:49:11;;;;;;;;;0.25;0.00;;;;;22.84;37.63;101508.53;5003965;28;45449;-51
2022/06/14 04:51:44;;;;;;;;;0.00;0.00;;;;;22.91;37.28;101520.53;5065170;28;46468;-54
2022/06/14 04:54:24;;;;;;;;;2.00;0.00;;;;;22.90;37.44;101522.34;5067026;27;46173;-53
2022/06/14 04:57:06;;;;;;;;;0.00;0.00;;;;;22.92;37.37;101516.91;5069867;28;45505;-53
2022/06/14 04:59:40;;;;;;;;;0.00;0.00;;;;;22.92;37.65;101522.25;5065382;28;45358;-52
2022/06/14 05:02:32;;;;;;;;;0.00;0.00;;;;;22.90;37.67;101516.16;5068548;28;45484;-52
2022/06/14 05:05:25;;;;;;;;;0.00;0.00;;;;;22.93;37.95;101521.31;5050377;27;46551;-53
2022/06/14 05:08:06;;;;;;;;;1.00;0.00;;;;;22.93;38.21;101522.16;5061740;28;45687;-54
2022/06/14 05:10:37;;;;;;;;;0.00;0.00;;;;;22.91;38.09;101512.50;5061202;28;45360;-53
2022/06/14 05:13:10;;;;;;;;;1.25;1.00;;;;;22.91;37.78;101509.84;5079566;27;45427;-54
2022/06/14 05:15:39;;;;;;;;;1.00;1.00;;;;;22.93;38.11;101507.97;5064047;28;45274;-50
2022/06/14 05:18:12;;;;;;;;;0.00;0.00;;;;;22.93;38.02;101511.47;5068793;28;45344;-54
2022/06/14 05:21:01;;;;;;;;;0.00;0.00;;;;;22.97;38.32;101516.63;5078363;27;45504;-51
2022/06/14 05:23:43;;;;;;;;;0.00;0.00;;;;;22.96;38.31;101512.22;5071452;28;45609;-52
2022/06/14 05:26:33;;;;;;;;;0.00;0.00;;;;;22.99;37.97;101518.19;5068948;27;46495;-53
2022/06/14 05:29:11;;;;;;;;;1.75;0.25;;;;;23.00;38.19;101522.59;5061687;28;46113;-52
2022/06/14 05:32:07;;;;;;;;;0.00;0.00;;;;;23.01;38.45;101518.09;5065777;28;45496;-53
2022/06/14 05:35:00;;;;;;;;;0.00;0.00;;;;;23.02;38.37;101504.66;5071819;28;48063;-53
2022/06/14 05:37:28;;;;;;;;;0.00;0.00;;;;;23.03;38.58;101506.34;5069397;28;46180;-53
2022/06/14 05:40:02;;;;;;;;;0.00;0.00;;;;;23.05;38.48;101517.81;5059622;28;45343;-53
2022/06/14 05:42:34;;;;;;;;;1.25;1.00;;;;;23.07;38.20;101520.38;5075387;28;45752;-52
2022/06/14 05:45:01;;;;;;;;;0.25;0.25;;;;;;;;5071814;28;46914;-53
2022/06/14 05:47:37;;;;;;;;;0.00;0.00;;;;;23.05;38.55;101508.97;5057504;28;45449;-51
2022/06/14 05:50:05;;;;;;;;;0.00;0.00;;;;;23.08;38.22;101530.97;5068379;27;45656;-52
2022/06/14 05:52:40;;;;;;;;;0.00;0.00;;;;;23.10;38.53;101528.19;5063833;28;45362;-52
2022/06/14 05:55:21;;;;;;;;;2.00;2.00;;;;;23.12;38.20;101526.28;5061249;28;45547;-52
2022/06/14 05:57:51;;;;;;;;;2.00;2.00;;;;;23.15;37.82;101518.06;5070915;28;47347;-53
2022/06/14 06:00:25;;;;;;;;;1.50;1.50;;;;;23.17;37.58;101526.81;5085609;27;45674;-53
2022/06/14 06:03:07;;;;;;;;;2.00;2.00;;;;;23.20;37.93;101520.44;5083640;27;45676;-53
2022/06/14 06:05:36;;;;;;;;;4.25;2.00;;;;;23.20;38.02;101518.59;5064807;28;45237;-53
2022/06/14 06:08:10;;;;;;;;;3.50;3.00;;;;;23.22;37.81;101516.69;5070349;28;45815;-53
2022/06/14 06:10:43;;;;;;;;;4.75;2.25;;;;;23.21;37.38;101512.28;5067188;28;45687;-54
2022/06/14 06:13:19;;;;;;;;;3.25;3.00;;;;;23.23;37.64;101513.06;5069984;28;45276;-54
2022/06/14 06:15:58;;;;;;;;;3.50;3.00;;;;;23.25;37.55;101512.97;5061740;28;45553;-53
2022/06/14 06:18:25;;;;;;;;;3.00;3.00;;;;;23.25;37.49;101513.81;5064746;28;45388;-53
2022/06/14 06:20:57;;;;;;;;;1.75;1.75;;;;;23.25;37.44;101512.97;5081708;27;45501;-53
2022/06/14 06:23:28;;;;;;;;;4.00;1.50;;;;;23.25;37.99;101503.13;5063374;28;45358;-52
2022/06/14 06:25:55;;;;;;;;;3.00;3.00;;;;;23.25;37.80;101503.13;5066388;28;45319;-53
2022/06/14 06:28:29;;;;;;;;;5.00;2.50;;;;;23.27;37.28;101505.69;5075152;28;45311;-53
2022/06/14 06:31:17;;;;;;;;;3.50;2.00;;;;;23.27;37.74;101497.69;5068164;28;45587;-53
2022/06/14 06:33:47;;;;;;;;;6.00;2.75;;;;;23.25;37.68;101495.13;5079706;27;45368;-53
2022/06/14 06:36:37;;;;;;;;;4.25;3.00;;;;;23.28;37.16;101483.34;5066837;28;45355;-54
2022/06/14 06:39:11;;;;;;;;;3.00;1.00;;;;;23.28;37.68;101486.03;5067994;28;46255;-54
2022/06/14 06:41:50;;;;;;;;;2.50;2.50;;;;;23.27;37.68;101487.00;5063201;28;45758;-53
2022/06/14 06:44:20;;;;;;;;;4.50;2.50;;;;;23.28;37.12;101494.03;5073831;28;45519;-52
2022/06/14 06:46:50;;;;;;;;;3.25;2.75;;;;;23.25;37.44;101488.94;5068600;28;45405;-52
2022/06/14 06:49:16;;;;;;;;;3.00;1.50;;;;;23.28;37.31;101492.25;5078275;27;45435;-54
2022/06/14 06:51:45;;;;;;;;;2.00;2.00;;;;;23.28;37.47;101497.59;5077675;27;45465;-54
2022/06/14 06:54:24;;;;;;;;;1.25;1.25;;;;;23.27;37.97;101492.34;5075676;28;45422;-53
2022/06/14 06:56:55;;;;;;;;;1.00;1.00;;;;;23.25;37.54;101488.94;5070383;28;45453;-53
2022/06/14 06:59:41;;;;;;;;;1.25;1.25;;;;;23.27;37.80;101487.84;5068196;28;47373;-51
2022/06/14 07:02:16;;;;;;;;;1.25;1.00;;;;;23.27;38.01;101485.19;5068050;28;45332;-53
2022/06/14 07:07:52;;;;;;;;;2.00;1.00;;;;;23.27;37.68;101490.53;5080030;27;45422;-53
2022/06/14 07:10:27;;;;;;;;;2.00;2.00;;;;;23.26;37.71;101485.28;5061634;28;45387;-51
2022/06/14 07:13:01;;;;;;;;;2.00;0.75;;;;;23.29;38.35;101487.75;5084334;27;45704;-53
2022/06/14 07:16:09;;;;;;;;;1.25;1.25;;;;;23.30;38.31;101487.66;5066841;28;45297;-57
2022/06/14 07:18:43;;;;;;;;;1.00;1.00;;;;;23.30;38.28;101476.09;5061444;28;45279;-53
2022/06/14 07:21:25;;;;;;;;;1.00;1.00;;;;;23.33;37.82;101469.69;5077722;28;45259;-54
2022/06/14 07:24:00;;;;;;;;;2.75;2.00;;;;;23.34;38.18;101480.28;5073238;28;45651;-52
2022/06/14 07:26:33;;;;;;;;;1.75;1.00;;;;;23.35;38.01;101475.78;5077122;28;45336;-54
2022/06/14 07:29:06;;;;;;;;;0.75;0.50;;;;;23.35;38.16;101463.28;5069529;27;45349;-53
2022/06/14 07:31:39;;;;;;;;;2.00;0.75;;;;;23.39;38.33;101474.59;5082457;27;46544;-51
2022/06/14 07:34:05;;;;;;;;;3.00;1.00;;;;;23.38;38.62;101473.75;5077174;27;45309;-54
2022/06/14 07:36:38;;;;;;;;;2.00;1.00;;;;;23.35;38.24;101468.63;5060650;28;69928;-53
2022/06/14 07:39:20;;;;;;;;;1.00;1.00;;;;;23.40;38.06;101462.97;5061680;28;45197;-53
2022/06/14 07:42:13;;;;;;;;;2.00;1.00;;;;;23.40;38.08;101470.97;5071272;28;46390;-51
2022/06/14 07:44:53;;;;;;;;;3.00;0.00;;;;;23.42;38.49;101461.03;5064894;28;45691;-54
2022/06/14 07:47:37;;;;;;;;;4.00;0.25;;;;;23.44;38.08;101456.44;5079231;28;45530;-54
2022/06/14 07:50:15;;;;;;;;;1.00;0.00;;;;;23.44;38.56;101464.44;5076009;27;45505;-53
2022/06/14 07:53:00;;;;;;;;;0.75;0.75;;;;;23.45;38.35;101459.00;5066955;27;46639;-53
2022/06/14 07:55:33;;;;;;;;;1.00;1.00;;;;;23.46;38.56;101457.19;5080923;27;45308;-54
2022/06/14 07:58:03;;;;;;;;;0.00;0.00;;;;;23.47;38.46;101457.06;5073487;27;45396;-53
2022/06/14 08:03:23;;;;;;;;;0.25;0.25;;;;;23.50;38.28;101450.69;5070837;28;45678;-53
2022/06/14 08:05:49;;;;;;;;;3.00;0.00;;;;;23.52;38.58;101447.91;5076283;27;45395;-53
2022/06/14 08:08:19;;;;;;;;;1.00;1.00;;;;;23.49;38.39;101447.13;5066123;28;50798;-53
2022/06/14 08:10:49;;;;;;;;;0.00;0.00;;;;;23.52;38.24;101440.72;5076299;27;45253;-53
2022/06/14 08:13:23;;;;;;;;;1.75;1.00;;;;;23.56;38.57;101439.53;5086845;27;46359;-53
2022/06/14 08:15:51;;;;;;;;;1.50;0.00;;;;;23.58;38.50;101436.78;5073700;27;45425;-54
2022/06/14 08:18:31;;;;;;;;;0.50;0.50;;;;;23.58;38.46;101434.09;5073905;27;45493;-54
2022/06/14 08:21:04;;;;;;;;;1.00;1.00;;;;;23.60;38.56;101438.38;5071098;27;45458;-53
2022/06/14 08:23:34;;;;;;;;;1.00;0.00;;;;;23.62;38.69;101432.91;5070991;28;45499;-53
2022/06/14 08:26:16;;;;;;;;;0.00;0.00;;;;;23.62;38.35;101427.56;5080904;27;45626;-54
2022/06/14 08:29:00;;;;;;;;;0.25;0.25;;;;;23.64;38.85;101426.50;5079619;27;45384;-53
2022/06/14 08:31:38;;;;;;;;;0.25;0.00;;;;;23.66;38.50;101426.41;5065395;28;45439;-52
2022/06/14 08:34:16;;;;;;;;;1.00;0.50;;;;;23.68;38.50;101424.47;5065944;27;46273;-53
2022/06/14 08:36:43;;;;;;;;;0.00;0.00;;;;;23.70;38.48;101426.06;5069986;27;45279;-54
2022/06/14 08:39:14;;;;;;;;;1.50;0.25;;;;;23.72;38.19;101425.09;5069105;27;45315;-52
2022/06/14 08:41:45;;;;;;;;;0.25;0.25;;;;;23.73;38.56;101422.31;5077239;27;45296;-52
2022/06/14 08:44:19;;;;;;;;;0.50;0.50;;;;;23.72;38.29;101412.59;5090900;27;45441;-54
2022/06/14 08:46:59;;;;;;;;;0.50;0.25;;;;;23.76;38.36;101418.56;5069553;27;45600;-53
2022/06/14 08:50:07;;;;;;;;;1.00;0.25;;;;;23.76;38.60;101415.88;5070301;27;45334;-52
2022/06/14 08:52:50;;;;;;;;;0.75;0.00;;;;;23.75;38.48;101417.72;5073067;27;45570;-54
2022/06/14 08:55:46;;;;;;;;;1.00;1.00;;;;;23.77;38.67;101414.94;5078248;27;46181;-53
2022/06/14 08:58:33;;;;;;;;;1.00;0.75;;;;;23.77;38.47;101421.13;5074515;28;45807;-53
2022/06/14 09:01:17;;;;;;;;;2.00;0.75;;;;;23.78;38.67;101416.63;5065528;27;45440;-51
2022/06/14 09:04:14;;;;;;;;;1.00;1.00;;;;;23.79;38.65;101419.19;5063514;28;45723;-54
2022/06/14 09:07:07;;;;;;;;;0.00;0.00;;;;;23.80;38.52;101415.59;5077720;27;47020;-53
2022/06/14 09:10:28;;;;;;;;;1.00;0.50;;;;;23.82;38.83;101415.50;5063537;28;45286;-53
2022/06/14 09:13:08;;;;;;;;;0.25;0.25;;;;;23.82;38.45;101421.69;5025842;28;45415;-52
2022/06/14 09:15:42;;;;;;;;;0.50;0.50;;;;;23.82;38.49;101421.69;5011731;28;45479;-52
2022/06/14 09:18:28;;;;;;;;;1.00;1.00;;;;;23.83;38.88;101422.53;5053997;27;46492;-52
2022/06/14 09:21:13;;;;;;;;;0.75;0.50;;;;;23.81;38.26;101411.94;5073551;28;45592;-53
2022/06/14 09:24:06;;;;;;;;;1.00;1.00;;;;;23.82;38.89;101416.34;5070991;27;45228;-54
2022/06/14 09:27:10;;;;;;;;;0.25;0.00;;;;;23.82;38.83;101416.34;5073653;28;45169;-53
2022/06/14 09:29:56;;;;;;;;;0.00;0.00;;;;;23.83;38.85;101414.50;5036910;27;45502;-54
2022/06/14 09:33:09;;;;;;;;;1.00;1.00;;;;;23.85;38.99;101407.22;5077558;28;45161;-53
2022/06/14 09:35:43;;;;;;;;;0.75;0.00;;;;;23.85;38.59;101401.88;5075314;27;45418;-53
2022/06/14 09:38:32;;;;;;;;;1.25;0.25;;;;;23.86;38.94;101400.94;5075634;27;45303;-53
2022/06/14 09:41:51;;;;;;;;;0.75;0.75;;;;;23.88;38.74;101401.66;5063342;28;46141;-54
2022/06/14 09:44:19;;;;;;;;;2.75;1.00;;;;;23.89;38.96;101403.38;5028023;28;45301;-53
2022/06/14 09:46:59;;;;;;;;;1.00;1.00;;;;;23.90;38.97;101402.41;5063054;28;45236;-54
2022/06/14 09:50:06;;;;;;;;;1.00;1.00;;;;;23.91;38.55;101404.13;5064706;28;45427;-53
2022/06/14 09:53:30;;;;;;;;;0.75;0.50;;;;;23.93;38.90;101409.38;5059365;27;45531;-54
2022/06/14 09:56:22;;;;;;;;;1.25;0.00;;;;;23.94;38.88;101406.59;5011356;28;45547;-53
2022/06/14 09:58:56;;;;;;;;;0.00;0.00;;;;;23.97;38.87;101406.34;5076019;27;45392;-53
2022/06/14 10:01:33;;;;;;;;;2.00;1.00;;;;;23.99;38.94;101408.91;5081865;27;45319;-54
2022/06/14 10:04:34;;;;;;;;;0.00;0.00;;;;;24.05;38.61;101408.47;5081752;27;45307;-54
2022/06/14 10:07:02;;;;;;;;;3.00;1.00;;;;;24.09;38.56;101409.09;5083268;27;45272;-52
2022/06/14 10:09:49;;;;;;;;;0.00;0.00;;;;;24.13;38.21;101395.38;5069838;27;45166;-54
2022/06/14 10:12:45;;;;;;;;;0.00;0.00;;;;;24.18;38.68;101392.38;5075725;27;45562;-54
2022/06/14 10:15:41;;;;;;;;;0.50;0.50;;;;;24.25;38.55;101396.28;5068225;27;45498;-51
2022/06/14 10:18:09;;;;;;;;;0.00;0.00;;;;;24.28;37.96;101390.72;5081001;27;45465;-52
2022/06/14 10:20:40;;;;;;;;;1.75;0.75;;;;;24.30;38.28;101388.78;5068595;27;45364;-54
2022/06/14 10:23:17;;;;;;;;;0.50;0.50;;;;;24.37;38.15;101387.34;5075062;28;45401;-54
2022/06/14 10:29:10;;;;;;;;;1.00;0.00;;;;;24.47;38.14;101386.66;5082731;27;45540;-54
2022/06/14 10:32:10;;;;;;;;;0.75;0.75;;;;;24.49;38.03;101384.72;5087540;27;45257;-54
2022/06/14 10:35:07;;;;;;;;;2.00;0.00;;;;;24.50;37.89;101376.56;5066886;28;45759;-50
2022/06/14 10:37:44;;;;;;;;;0.50;0.50;;;;;24.57;37.88;101382.34;5078038;27;46196;-51
2022/06/14 10:40:26;;;;;;;;;0.00;0.00;;;;;24.59;37.86;101378.56;5073490;27;45433;-51
2022/06/14 10:43:00;;;;;;;;;2.00;1.00;;;;;24.61;37.75;101375.78;5094417;27;45470;-54
2022/06/14 10:45:48;;;;;;;;;1.50;0.75;;;;;24.62;37.97;101373.00;5065664;27;45285;-52
2022/06/14 10:48:19;;;;;;;;;0.00;0.00;;;;;24.66;37.75;101367.41;5071313;27;45530;-54
2022/06/14 10:51:01;;;;;;;;;0.00;0.00;;;;;24.67;37.60;101369.13;5073474;27;45587;-54
2022/06/14 10:53:47;;;;;;;;;0.50;0.25;;;;;24.72;37.56;101364.25;5065472;28;45257;-51
2022/06/14 10:56:26;;;;;;;;;1.00;1.00;;;;;24.74;37.91;101360.50;5068969;27;45319;-53
2022/06/14 10:59:17;;;;;;;;;0.75;0.75;;;;;24.76;37.80;101361.22;5074468;27;45326;-54
2022/06/14 11:02:20;;;;;;;;;0.75;0.75;;;;;24.80;37.60;101343.09;5047320;28;45244;-53
2022/06/14 11:04:59;;;;;;;;;1.75;0.75;;;;;24.84;37.33;101344.56;5075461;28;45374;-53
2022/06/14 11:08:02;;;;;;;;;0.00;0.00;;;;;24.86;37.50;101342.66;5074468;27;45498;-54
2022/06/14 11:10:30;;;;;;;;;1.25;1.00;;;;;24.89;37.76;101338.88;5065616;27;45244;-54
2022/06/14 11:13:06;;;;;;;;;0.00;0.00;;;;;24.83;37.41;101327.66;5071759;28;45220;-53
2022/06/14 11:15:45;;;;;;;;;1.00;1.00;;;;;24.92;37.34;101330.59;5089297;27;46485;-53
2022/06/14 11:18:29;;;;;;;;;1.00;1.00;;;;;24.95;37.65;101319.66;5080530;27;45229;-52
2022/06/14 11:20:55;;;;;;;;;3.50;1.00;;;;;24.97;37.42;101325.75;5078738;27;46181;-53
2022/06/14 11:23:39;;;;;;;;;1.00;1.00;;;;;24.99;37.51;101318.44;5075090;27;45438;-53
2022/06/14 11:26:18;;;;;;;;;1.50;0.75;;;;;24.99;37.41;101313.91;5074856;27;45489;-51
2022/06/14 11:29:13;;;;;;;;;0.50;0.50;;;;;25.01;37.47;101309.28;5091684;27;45308;-54
2022/06/14 11:31:46;;;;;;;;;0.25;0.00;;;;;25.05;37.45;101304.53;5068311;27;45385;-53
2022/06/14 11:34:50;;;;;;;;;1.25;0.75;;;;;25.07;37.26;101307.94;5087714;27;45687;-52
2022/06/14 11:37:27;;;;;;;;;0.00;0.00;;;;;25.08;37.50;101301.63;5075191;27;45532;-53
2022/06/14 11:39:59;;;;;;;;;1.00;1.00;;;;;25.09;37.64;101300.66;5087335;27;45352;-51
2022/06/14 11:42:36;;;;;;;;;1.75;0.25;;;;;25.10;37.44;101288.13;5077750;28;45272;-53
2022/06/14 11:45:05;;;;;;;;;2.00;2.00;;;;;25.12;37.36;101288.84;5083668;27;45217;-54
2022/06/14 11:47:37;;;;;;;;;2.25;1.00;;;;;25.13;37.25;101286.06;5065018;28;45483;-54
2022/06/14 11:50:21;;;;;;;;;0.75;0.00;;;;;25.11;37.34;101266.56;5074714;27;45306;-54
2022/06/14 11:53:00;;;;;;;;;0.25;0.25;;;;;25.15;37.46;101273.38;5054766;28;45445;-53
2022/06/14 11:55:39;;;;;;;;;0.00;0.00;;;;;25.16;37.22;101263.50;5061736;28;45303;-52
2022/06/14 11:58:25;;;;;;;;;1.00;1.00;;;;;25.16;37.21;101258.16;5078313;27;45473;-52
2022/06/14 12:01:14;;;;;;;;;1.50;1.00;;;;;25.14;37.27;101265.47;5077946;27;45252;-52
2022/06/14 12:03:54;;;;;;;;;1.00;1.00;;;;;25.16;37.41;101271.53;5076978;28;46283;-53
2022/06/14 12:06:39;;;;;;;;;0.25;0.25;;;;;25.15;37.27;101262.66;5069022;27;45350;-53
2022/06/14 12:09:38;;;;;;;;;1.00;1.00;;;;;25.15;37.36;101265.34;5068628;27;45479;-52
2022/06/14 12:12:15;;;;;;;;;1.00;1.00;;;;;25.15;37.22;101257.31;5066388;27;45412;-54
2022/06/14 12:15:03;;;;;;;;;0.25;0.25;;;;;25.15;37.48;101248.44;5075724;27;46842;-53
2022/06/14 12:17:45;;;;;;;;;1.75;1.00;;;;;25.16;37.25;101242.97;5064539;28;45818;-53
2022/06/14 12:20:20;;;;;;;;;2.00;1.25;;;;;25.17;37.47;101249.16;5087267;27;45398;-53
2022/06/14 12:23:01;;;;;;;;;0.50;0.50;;;;;25.16;37.17;101248.31;5071508;27;45382;-51
2022/06/14 12:28:34;;;;;;;;;1.00;0.00;;;;;25.15;37.19;101241.25;5079494;27;45316;-53
2022/06/14 12:31:18;;;;;;;;;0.00;0.00;;;;;25.15;37.39;101235.88;5090532;27;45370;-53
2022/06/14 12:33:50;;;;;;;;;0.00;0.00;;;;;25.13;37.64;101237.84;5071912;28;45290;-53
2022/06/14 12:36:21;;;;;;;;;0.75;0.75;;;;;25.13;37.25;101221.78;5052857;28;45979;-52
2022/06/14 12:38:48;;;;;;;;;2.50;1.25;;;;;25.12;37.42;101219.22;5049206;28;45743;-52